ADDS METAR Data INFO
IDs: Format: Raw Decoded Include TAF

Data at: 2314 UTC 15 Jul 2018

KSAC 152253Z 20008KT 10SM CLR 33/16 A2986 RMK AO2 SLP110 T03280161
KSAC 152153Z 21009KT 10SM CLR 32/16 A2987 RMK AO2 SLP116 T03220156
KSAC 152053Z 22008KT 10SM CLR 31/15 A2990 RMK AO2 SLP124 T03110150 58008
KSAC 151953Z 22008KT 10SM CLR 28/15 A2991 RMK AO2 SLP127 T02830150
KSAC 151853Z 23007KT 10SM CLR 26/14 A2992 RMK AO2 SLP133 T02610144
KSAC 151753Z 19007KT 160V220 10SM CLR 23/14 A2992 RMK AO2 SLP132 T02330139 10239 20156 58003
KSAC 151653Z 21008KT 10SM CLR 21/14 A2993 RMK AO2 SLP135 T02110139
KSAC 151553Z 21007KT 10SM CLR 19/14 A2994 RMK AO2 SLP138 T01890139
KSAC 151453Z 18008KT 10SM CLR 17/13 A2993 RMK AO2 SLP135 T01720133 53009
KSAC 151353Z 17007KT 10SM CLR 16/13 A2992 RMK AO2 SLP133 T01610133
KSAC 151253Z AUTO 17006KT 10SM CLR 16/13 A2991 RMK AO2 SLP127 T01560133
KSAC 151153Z AUTO VRB03KT 10SM CLR 16/13 A2990 RMK AO2 SLP126 T01610133 10194 20161 55000
KSAC 151053Z AUTO 16005KT 10SM CLR 16/13 A2990 RMK AO2 SLP124 T01610133
KSAC 150953Z AUTO 17004KT 10SM CLR 18/14 A2990 RMK AO2 SLP125 T01780139
KSAC 150853Z AUTO 18005KT 10SM CLR 17/13 A2990 RMK AO2 SLP126 T01720133 50001
KSAC 150753Z AUTO 17007KT 10SM CLR 18/13 A2991 RMK AO2 SLP127 T01780133 403560172
KSAC 150653Z AUTO 20009KT 10SM CLR 19/14 A2990 RMK AO2 SLP125 T01890139
KSAC 150553Z AUTO 19006KT 10SM CLR 19/14 A2990 RMK AO2 SLP125 T01940139 10339 20194 53014
KSAC 150453Z AUTO 19009KT 10SM CLR 22/14 A2988 RMK AO2 SLP119 T02170139
KSAC 150353Z 20006KT 10SM CLR 24/13 A2987 RMK AO2 SLP114 T02440133
KSAC 150253Z 19009KT 10SM CLR 27/13 A2986 RMK AO2 SLP111 T02720133 55004
KSAC 150153Z 21008KT 10SM CLR 31/14 A2984 RMK AO2 SLP104 T03060144
KSAC 150053Z 21009KT 10SM CLR 33/16 A2985 RMK AO2 SLP109 T03280161
KSAC 142353Z 19008G17KT 10SM CLR 33/16 A2987 RMK AO2 SLP115 T03330156 10356 20272 56017
KSAC 142253Z 20009KT 10SM CLR 34/16 A2988 RMK AO2 SLP119 T03440156
KSAC 142153Z 24010KT 200V260 10SM CLR 34/16 A2990 RMK AO2 SLP124 T03440161
KSAC 142058Z 22007KT 10SM CLR 33/16 A2992
KSAC 142053Z 21008KT 170V230 10SM CLR 33/16 A2992 RMK AO2 SLP133 T03330161 58018
KSAC 141953Z 25007KT 10SM CLR 31/16 A2995 RMK AO2 SLP141 T03110161
KSAC 141853Z 20005KT 10SM CLR 28/16 A2997 RMK AO2 SLP148 T02830161
KSAC 141753Z 26007KT 10SM CLR 28/16 A2998 RMK AO2 SLP151 T02780161 10278 20172 58001
KSAC 141653Z 22007KT 10SM CLR 24/15 A2998 RMK AO2 SLP152 T02440150
KSAC 141553Z 19006KT 10SM CLR 21/15 A2998 RMK AO2 SLP153 T02110150
KSAC 141453Z 21007KT 10SM CLR 19/14 A2998 RMK AO2 SLP151 T01940139 51007
KSAC 141353Z 20006KT 10SM CLR 18/14 A2997 RMK AO2 SLP149 T01780139
KSAC 141253Z 19004KT 10SM CLR 18/14 A2997 RMK AO2 SLP147 T01780139
KSAC 141153Z AUTO 18005KT 10SM CLR 18/14 A2996 RMK AO2 SLP144 T01780139 10239 20178 55000